sensor_id;sensor_type;location;lat;lon;timestamp;temperature;humidity
21627;DHT22;10975;47.872;12.972;2023-02-22T00:00:13;3.50;99.90
21627;DHT22;10975;47.872;12.972;2023-02-22T00:02:45;3.50;99.90
21627;DHT22;10975;47.872;12.972;2023-02-22T00:05:14;3.40;99.90
21627;DHT22;10975;47.872;12.972;2023-02-22T00:07:42;3.40;99.90
21627;DHT22;10975;47.872;12.972;2023-02-22T00:10:10;3.30;99.90
21627;DHT22;10975;47.872;12.972;2023-02-22T00:12:40;3.30;99.90
21627;DHT22;10975;47.872;12.972;2023-02-22T00:15:08;3.30;99.90
21627;DHT22;10975;47.872;12.972;2023-02-22T00:17:37;3.30;99.90
21627;DHT22;10975;47.872;12.972;2023-02-22T00:20:03;3.20;99.90
21627;DHT22;10975;47.872;12.972;2023-02-22T00:22:33;3.10;99.90
21627;DHT22;10975;47.872;12.972;2023-02-22T00:25:00;3.00;99.90
21627;DHT22;10975;47.872;12.972;2023-02-22T00:27:26;3.00;99.90
21627;DHT22;10975;47.872;12.972;2023-02-22T00:29:53;3.00;99.90
21627;DHT22;10975;47.872;12.972;2023-02-22T00:32:21;2.90;99.90
21627;DHT22;10975;47.872;12.972;2023-02-22T00:34:52;2.90;99.90
21627;DHT22;10975;47.872;12.972;2023-02-22T00:37:21;2.90;99.90
21627;DHT22;10975;47.872;12.972;2023-02-22T00:39:49;3.00;99.90
21627;DHT22;10975;47.872;12.972;2023-02-22T00:42:16;3.00;99.90
21627;DHT22;10975;47.872;12.972;2023-02-22T00:44:43;2.90;99.90
21627;DHT22;10975;47.872;12.972;2023-02-22T00:47:10;3.00;99.90
21627;DHT22;10975;47.872;12.972;2023-02-22T00:49:36;3.00;99.90
21627;DHT22;10975;47.872;12.972;2023-02-22T00:52:04;3.00;99.90
21627;DHT22;10975;47.872;12.972;2023-02-22T00:54:36;3.00;99.90
21627;DHT22;10975;47.872;12.972;2023-02-22T00:57:07;3.00;99.90
21627;DHT22;10975;47.872;12.972;2023-02-22T00:59:34;2.80;99.90
21627;DHT22;10975;47.872;12.972;2023-02-22T01:02:00;2.70;99.90
21627;DHT22;10975;47.872;12.972;2023-02-22T01:04:27;2.60;99.90
21627;DHT22;10975;47.872;12.972;2023-02-22T01:06:54;2.60;99.90
21627;DHT22;10975;47.872;12.972;2023-02-22T01:09:21;2.60;99.90
21627;DHT22;10975;47.872;12.972;2023-02-22T01:11:53;2.60;99.90
21627;DHT22;10975;47.872;12.972;2023-02-22T01:14:23;2.60;99.90
21627;DHT22;10975;47.872;12.972;2023-02-22T01:16:52;2.60;99.90
21627;DHT22;10975;47.872;12.972;2023-02-22T01:19:20;2.70;99.90
21627;DHT22;10975;47.872;12.972;2023-02-22T01:21:47;2.60;99.90
21627;DHT22;10975;47.872;12.972;2023-02-22T01:24:15;2.60;99.90
21627;DHT22;10975;47.872;12.972;2023-02-22T01:26:42;2.60;99.90
21627;DHT22;10975;47.872;12.972;2023-02-22T01:29:11;2.60;99.90
21627;DHT22;10975;47.872;12.972;2023-02-22T01:31:41;2.60;99.90
21627;DHT22;10975;47.872;12.972;2023-02-22T01:34:10;2.60;99.90
21627;DHT22;10975;47.872;12.972;2023-02-22T01:36:37;2.60;99.90
21627;DHT22;10975;47.872;12.972;2023-02-22T01:39:05;2.60;99.90
21627;DHT22;10975;47.872;12.972;2023-02-22T01:41:32;2.60;99.90
21627;DHT22;10975;47.872;12.972;2023-02-22T01:44:39;2.60;99.90
21627;DHT22;10975;47.872;12.972;2023-02-22T01:47:01;2.60;99.90
21627;DHT22;10975;47.872;12.972;2023-02-22T01:49:30;2.50;99.90
21627;DHT22;10975;47.872;12.972;2023-02-22T01:51:59;2.50;99.90
21627;DHT22;10975;47.872;12.972;2023-02-22T01:54:29;2.50;99.90
21627;DHT22;10975;47.872;12.972;2023-02-22T01:57:12;2.50;99.90
21627;DHT22;10975;47.872;12.972;2023-02-22T01:59:42;2.50;99.90
21627;DHT22;10975;47.872;12.972;2023-02-22T02:02:10;2.50;99.90
21627;DHT22;10975;47.872;12.972;2023-02-22T02:04:37;2.50;99.90
21627;DHT22;10975;47.872;12.972;2023-02-22T02:07:08;2.50;99.90
21627;DHT22;10975;47.872;12.972;2023-02-22T02:09:43;2.50;99.90
21627;DHT22;10975;47.872;12.972;2023-02-22T02:12:14;2.50;99.90
21627;DHT22;10975;47.872;12.972;2023-02-22T02:14:41;2.40;99.90
21627;DHT22;10975;47.872;12.972;2023-02-22T02:17:10;2.40;99.90
21627;DHT22;10975;47.872;12.972;2023-02-22T02:19:50;2.40;99.90
21627;DHT22;10975;47.872;12.972;2023-02-22T02:30:22;2.20;99.90
21627;DHT22;10975;47.872;12.972;2023-02-22T02:32:57;2.10;99.90
21627;DHT22;10975;47.872;12.972;2023-02-22T02:40:46;1.90;99.90
21627;DHT22;10975;47.872;12.972;2023-02-22T02:45:53;1.90;99.90
21627;DHT22;10975;47.872;12.972;2023-02-22T02:48:24;1.90;99.90
21627;DHT22;10975;47.872;12.972;2023-02-22T02:50:51;1.90;99.90
21627;DHT22;10975;47.872;12.972;2023-02-22T02:53:21;2.00;99.90
21627;DHT22;10975;47.872;12.972;2023-02-22T02:55:50;1.90;99.90
21627;DHT22;10975;47.872;12.972;2023-02-22T02:58:19;2.00;99.90
21627;DHT22;10975;47.872;12.972;2023-02-22T03:00:46;2.00;99.90
21627;DHT22;10975;47.872;12.972;2023-02-22T03:10:42;2.00;99.90
21627;DHT22;10975;47.872;12.972;2023-02-22T03:16:02;2.00;99.90
21627;DHT22;10975;47.872;12.972;2023-02-22T03:22:01;2.00;99.90
21627;DHT22;10975;47.872;12.972;2023-02-22T03:24:13;2.00;99.90
21627;DHT22;10975;47.872;12.972;2023-02-22T03:26:49;2.00;99.90
21627;DHT22;10975;47.872;12.972;2023-02-22T03:29:18;1.90;99.90
21627;DHT22;10975;47.872;12.972;2023-02-22T03:31:47;1.80;99.90
21627;DHT22;10975;47.872;12.972;2023-02-22T03:34:18;1.80;99.90
21627;DHT22;10975;47.872;12.972;2023-02-22T03:36:47;1.80;99.90
21627;DHT22;10975;47.872;12.972;2023-02-22T03:39:15;1.70;99.90
21627;DHT22;10975;47.872;12.972;2023-02-22T03:41:47;1.70;99.90
21627;DHT22;10975;47.872;12.972;2023-02-22T03:44:17;1.80;99.90
21627;DHT22;10975;47.872;12.972;2023-02-22T03:46:46;1.80;99.90
21627;DHT22;10975;47.872;12.972;2023-02-22T03:52:07;1.70;99.90
21627;DHT22;10975;47.872;12.972;2023-02-22T03:54:34;1.80;99.90
21627;DHT22;10975;47.872;12.972;2023-02-22T03:57:05;1.70;99.90
21627;DHT22;10975;47.872;12.972;2023-02-22T03:59:34;1.80;99.90
21627;DHT22;10975;47.872;12.972;2023-02-22T04:02:01;1.70;99.90
21627;DHT22;10975;47.872;12.972;2023-02-22T04:04:27;1.70;99.90
21627;DHT22;10975;47.872;12.972;2023-02-22T04:06:54;1.70;99.90
21627;DHT22;10975;47.872;12.972;2023-02-22T04:09:21;1.60;99.90
21627;DHT22;10975;47.872;12.972;2023-02-22T04:11:48;1.60;99.90
21627;DHT22;10975;47.872;12.972;2023-02-22T04:14:14;1.60;99.90
21627;DHT22;10975;47.872;12.972;2023-02-22T04:16:41;1.60;99.90
21627;DHT22;10975;47.872;12.972;2023-02-22T04:19:08;1.60;99.90
21627;DHT22;10975;47.872;12.972;2023-02-22T04:21:34;1.60;99.90
21627;DHT22;10975;47.872;12.972;2023-02-22T04:24:01;1.60;99.90
21627;DHT22;10975;47.872;12.972;2023-02-22T04:26:28;1.60;99.90
21627;DHT22;10975;47.872;12.972;2023-02-22T04:28:54;1.50;99.90
21627;DHT22;10975;47.872;12.972;2023-02-22T04:31:21;1.50;99.90
21627;DHT22;10975;47.872;12.972;2023-02-22T04:33:48;1.50;99.90
21627;DHT22;10975;47.872;12.972;2023-02-22T04:36:14;1.50;99.90
21627;DHT22;10975;47.872;12.972;2023-02-22T04:38:42;1.50;99.90
21627;DHT22;10975;47.872;12.972;2023-02-22T04:41:08;1.40;99.90
21627;DHT22;10975;47.872;12.972;2023-02-22T04:43:35;1.40;99.90
21627;DHT22;10975;47.872;12.972;2023-02-22T04:46:02;1.50;99.90
21627;DHT22;10975;47.872;12.972;2023-02-22T04:48:29;1.50;99.90
21627;DHT22;10975;47.872;12.972;2023-02-22T04:50:57;1.50;99.90
21627;DHT22;10975;47.872;12.972;2023-02-22T04:53:54;1.40;99.90
21627;DHT22;10975;47.872;12.972;2023-02-22T04:56:20;1.40;99.90
21627;DHT22;10975;47.872;12.972;2023-02-22T04:58:47;1.40;99.90
21627;DHT22;10975;47.872;12.972;2023-02-22T05:01:14;1.40;99.90
21627;DHT22;10975;47.872;12.972;2023-02-22T05:03:42;1.40;99.90
21627;DHT22;10975;47.872;12.972;2023-02-22T05:06:09;1.30;99.90
21627;DHT22;10975;47.872;12.972;2023-02-22T05:08:37;1.20;99.90
21627;DHT22;10975;47.872;12.972;2023-02-22T05:11:04;1.20;99.90
21627;DHT22;10975;47.872;12.972;2023-02-22T05:13:31;1.10;99.90
21627;DHT22;10975;47.872;12.972;2023-02-22T05:15:57;1.10;99.90
21627;DHT22;10975;47.872;12.972;2023-02-22T05:18:24;1.10;99.90
21627;DHT22;10975;47.872;12.972;2023-02-22T05:20:51;1.10;99.90
21627;DHT22;10975;47.872;12.972;2023-02-22T05:23:17;1.10;99.90
21627;DHT22;10975;47.872;12.972;2023-02-22T05:25:44;1.10;99.90
21627;DHT22;10975;47.872;12.972;2023-02-22T05:28:12;1.10;99.90
21627;DHT22;10975;47.872;12.972;2023-02-22T05:30:39;1.10;99.90
21627;DHT22;10975;47.872;12.972;2023-02-22T05:33:07;1.00;99.90
21627;DHT22;10975;47.872;12.972;2023-02-22T05:35:33;0.90;99.90
21627;DHT22;10975;47.872;12.972;2023-02-22T05:38:00;0.90;99.90
21627;DHT22;10975;47.872;12.972;2023-02-22T05:40:29;0.90;99.90
21627;DHT22;10975;47.872;12.972;2023-02-22T05:42:56;1.00;99.90
21627;DHT22;10975;47.872;12.972;2023-02-22T05:45:24;1.00;99.90
21627;DHT22;10975;47.872;12.972;2023-02-22T05:47:51;1.10;99.90
21627;DHT22;10975;47.872;12.972;2023-02-22T05:50:18;1.10;99.90
21627;DHT22;10975;47.872;12.972;2023-02-22T05:52:45;1.10;99.90
21627;DHT22;10975;47.872;12.972;2023-02-22T05:55:13;1.20;99.90
21627;DHT22;10975;47.872;12.972;2023-02-22T05:57:40;1.20;99.90
21627;DHT22;10975;47.872;12.972;2023-02-22T06:00:07;1.10;99.90
21627;DHT22;10975;47.872;12.972;2023-02-22T06:02:34;1.10;99.90
21627;DHT22;10975;47.872;12.972;2023-02-22T06:05:00;1.10;99.90
21627;DHT22;10975;47.872;12.972;2023-02-22T06:07:27;1.20;99.90
21627;DHT22;10975;47.872;12.972;2023-02-22T06:09:54;1.20;99.90
21627;DHT22;10975;47.872;12.972;2023-02-22T06:12:20;1.10;99.90
21627;DHT22;10975;47.872;12.972;2023-02-22T06:14:47;1.10;99.90
21627;DHT22;10975;47.872;12.972;2023-02-22T06:17:14;1.10;99.90
21627;DHT22;10975;47.872;12.972;2023-02-22T06:19:41;1.10;99.90
21627;DHT22;10975;47.872;12.972;2023-02-22T06:22:13;1.10;99.90
21627;DHT22;10975;47.872;12.972;2023-02-22T06:24:41;1.10;99.90
21627;DHT22;10975;47.872;12.972;2023-02-22T06:27:07;1.10;99.90
21627;DHT22;10975;47.872;12.972;2023-02-22T06:29:34;1.20;99.90
21627;DHT22;10975;47.872;12.972;2023-02-22T06:32:01;1.20;99.90
21627;DHT22;10975;47.872;12.972;2023-02-22T06:34:27;1.20;99.90
21627;DHT22;10975;47.872;12.972;2023-02-22T06:36:54;1.20;99.90
21627;DHT22;10975;47.872;12.972;2023-02-22T06:39:21;1.30;99.90
21627;DHT22;10975;47.872;12.972;2023-02-22T06:41:48;1.30;99.90
21627;DHT22;10975;47.872;12.972;2023-02-22T06:44:16;1.30;99.90
21627;DHT22;10975;47.872;12.972;2023-02-22T06:46:47;1.40;99.90
21627;DHT22;10975;47.872;12.972;2023-02-22T06:49:14;1.40;99.90
21627;DHT22;10975;47.872;12.972;2023-02-22T06:51:41;1.40;99.90
21627;DHT22;10975;47.872;12.972;2023-02-22T06:54:08;1.50;99.90
21627;DHT22;10975;47.872;12.972;2023-02-22T06:56:35;1.60;99.90
21627;DHT22;10975;47.872;12.972;2023-02-22T06:59:01;1.70;99.90
21627;DHT22;10975;47.872;12.972;2023-02-22T07:01:28;1.70;99.90
21627;DHT22;10975;47.872;12.972;2023-02-22T07:03:55;1.80;99.90
21627;DHT22;10975;47.872;12.972;2023-02-22T07:06:22;1.80;99.90
21627;DHT22;10975;47.872;12.972;2023-02-22T07:08:49;1.80;99.90
21627;DHT22;10975;47.872;12.972;2023-02-22T07:11:16;1.90;99.90
21627;DHT22;10975;47.872;12.972;2023-02-22T07:13:43;2.00;99.90
21627;DHT22;10975;47.872;12.972;2023-02-22T07:16:10;2.00;99.90
21627;DHT22;10975;47.872;12.972;2023-02-22T07:18:36;2.00;99.90
21627;DHT22;10975;47.872;12.972;2023-02-22T07:21:04;2.00;99.90
21627;DHT22;10975;47.872;12.972;2023-02-22T07:23:31;1.90;99.90
21627;DHT22;10975;47.872;12.972;2023-02-22T07:26:00;1.90;99.90
21627;DHT22;10975;47.872;12.972;2023-02-22T07:28:27;2.00;99.90
21627;DHT22;10975;47.872;12.972;2023-02-22T07:30:54;2.20;99.90
21627;DHT22;10975;47.872;12.972;2023-02-22T07:33:21;2.20;99.90
21627;DHT22;10975;47.872;12.972;2023-02-22T07:35:48;2.30;99.90
21627;DHT22;10975;47.872;12.972;2023-02-22T07:38:16;2.30;99.90
21627;DHT22;10975;47.872;12.972;2023-02-22T07:40:43;2.30;99.90
21627;DHT22;10975;47.872;12.972;2023-02-22T07:43:17;2.30;99.90
21627;DHT22;10975;47.872;12.972;2023-02-22T07:45:44;2.40;99.90
21627;DHT22;10975;47.872;12.972;2023-02-22T07:48:11;2.50;99.90
21627;DHT22;10975;47.872;12.972;2023-02-22T07:50:38;2.50;99.90
21627;DHT22;10975;47.872;12.972;2023-02-22T07:53:05;2.50;99.90
21627;DHT22;10975;47.872;12.972;2023-02-22T07:55:33;2.60;99.90
21627;DHT22;10975;47.872;12.972;2023-02-22T07:58:01;2.60;99.90
21627;DHT22;10975;47.872;12.972;2023-02-22T08:00:32;2.80;99.90
21627;DHT22;10975;47.872;12.972;2023-02-22T08:02:59;2.90;99.90
21627;DHT22;10975;47.872;12.972;2023-02-22T08:05:27;3.10;99.90
21627;DHT22;10975;47.872;12.972;2023-02-22T08:07:54;3.20;99.90
21627;DHT22;10975;47.872;12.972;2023-02-22T08:10:22;3.30;99.90
21627;DHT22;10975;47.872;12.972;2023-02-22T08:12:49;3.40;99.90
21627;DHT22;10975;47.872;12.972;2023-02-22T08:15:21;3.50;99.90
21627;DHT22;10975;47.872;12.972;2023-02-22T08:17:49;3.60;99.90
21627;DHT22;10975;47.872;12.972;2023-02-22T08:20:16;3.70;99.90
21627;DHT22;10975;47.872;12.972;2023-02-22T08:22:43;3.90;99.90
21627;DHT22;10975;47.872;12.972;2023-02-22T08:25:10;4.00;99.90
21627;DHT22;10975;47.872;12.972;2023-02-22T08:27:37;4.10;99.90
21627;DHT22;10975;47.872;12.972;2023-02-22T08:30:04;4.20;99.90
21627;DHT22;10975;47.872;12.972;2023-02-22T08:32:31;4.30;99.90
21627;DHT22;10975;47.872;12.972;2023-02-22T08:34:57;4.50;99.90
21627;DHT22;10975;47.872;12.972;2023-02-22T08:37:24;4.60;99.90
21627;DHT22;10975;47.872;12.972;2023-02-22T08:39:51;4.80;99.90
21627;DHT22;10975;47.872;12.972;2023-02-22T08:42:18;4.90;99.90
21627;DHT22;10975;47.872;12.972;2023-02-22T08:44:45;5.00;99.90
21627;DHT22;10975;47.872;12.972;2023-02-22T08:47:11;5.10;99.90
21627;DHT22;10975;47.872;12.972;2023-02-22T08:49:38;5.30;99.90
21627;DHT22;10975;47.872;12.972;2023-02-22T08:52:05;5.40;99.90
21627;DHT22;10975;47.872;12.972;2023-02-22T08:54:31;5.40;99.90
21627;DHT22;10975;47.872;12.972;2023-02-22T08:56:58;5.60;99.90
21627;DHT22;10975;47.872;12.972;2023-02-22T08:59:25;5.70;99.90
21627;DHT22;10975;47.872;12.972;2023-02-22T09:01:51;5.80;99.90
21627;DHT22;10975;47.872;12.972;2023-02-22T09:04:18;5.80;99.90
21627;DHT22;10975;47.872;12.972;2023-02-22T09:06:45;5.90;99.90
21627;DHT22;10975;47.872;12.972;2023-02-22T09:09:17;6.10;99.90
21627;DHT22;10975;47.872;12.972;2023-02-22T09:11:49;6.20;99.90
21627;DHT22;10975;47.872;12.972;2023-02-22T09:14:18;6.30;99.90
21627;DHT22;10975;47.872;12.972;2023-02-22T09:16:45;6.50;99.90
21627;DHT22;10975;47.872;12.972;2023-02-22T09:19:12;6.60;99.90
21627;DHT22;10975;47.872;12.972;2023-02-22T09:21:39;6.70;99.90
21627;DHT22;10975;47.872;12.972;2023-02-22T09:24:06;6.70;99.90
21627;DHT22;10975;47.872;12.972;2023-02-22T09:26:36;6.80;99.90
21627;DHT22;10975;47.872;12.972;2023-02-22T09:29:07;6.90;99.90
21627;DHT22;10975;47.872;12.972;2023-02-22T09:31:37;6.90;99.90
21627;DHT22;10975;47.872;12.972;2023-02-22T09:34:05;6.90;99.90
21627;DHT22;10975;47.872;12.972;2023-02-22T09:36:42;7.00;99.90
21627;DHT22;10975;47.872;12.972;2023-02-22T09:39:09;7.20;99.90
21627;DHT22;10975;47.872;12.972;2023-02-22T09:41:50;7.30;99.90
21627;DHT22;10975;47.872;12.972;2023-02-22T09:47:11;7.40;99.90
21627;DHT22;10975;47.872;12.972;2023-02-22T09:49:41;7.60;99.90
21627;DHT22;10975;47.872;12.972;2023-02-22T09:52:17;7.70;99.90
21627;DHT22;10975;47.872;12.972;2023-02-22T09:54:47;7.80;99.90
21627;DHT22;10975;47.872;12.972;2023-02-22T09:57:21;8.00;99.90
21627;DHT22;10975;47.872;12.972;2023-02-22T10:00:35;8.10;99.90
21627;DHT22;10975;47.872;12.972;2023-02-22T10:02:59;8.10;99.90
21627;DHT22;10975;47.872;12.972;2023-02-22T10:05:33;8.30;99.90
21627;DHT22;10975;47.872;12.972;2023-02-22T10:08:03;8.40;99.90
21627;DHT22;10975;47.872;12.972;2023-02-22T10:10:34;8.60;99.90
21627;DHT22;10975;47.872;12.972;2023-02-22T10:13:24;8.60;99.90
21627;DHT22;10975;47.872;12.972;2023-02-22T10:23:49;8.90;99.90
21627;DHT22;10975;47.872;12.972;2023-02-22T10:26:19;9.00;99.90
21627;DHT22;10975;47.872;12.972;2023-02-22T10:28:55;9.00;99.90
21627;DHT22;10975;47.872;12.972;2023-02-22T10:31:35;9.10;99.90
21627;DHT22;10975;47.872;12.972;2023-02-22T10:34:06;9.10;99.90
21627;DHT22;10975;47.872;12.972;2023-02-22T10:36:35;9.20;99.90
21627;DHT22;10975;47.872;12.972;2023-02-22T10:39:27;9.30;99.90
21627;DHT22;10975;47.872;12.972;2023-02-22T10:41:52;9.40;99.90
21627;DHT22;10975;47.872;12.972;2023-02-22T10:44:20;9.50;99.90
21627;DHT22;10975;47.872;12.972;2023-02-22T10:46:47;9.60;99.90
21627;DHT22;10975;47.872;12.972;2023-02-22T10:49:17;9.70;99.90
21627;DHT22;10975;47.872;12.972;2023-02-22T10:51:44;9.80;99.90
21627;DHT22;10975;47.872;12.972;2023-02-22T10:54:18;9.90;99.90
21627;DHT22;10975;47.872;12.972;2023-02-22T10:56:49;10.20;99.90
21627;DHT22;10975;47.872;12.972;2023-02-22T10:59:35;10.20;99.90
21627;DHT22;10975;47.872;12.972;2023-02-22T11:04:51;10.30;99.90
21627;DHT22;10975;47.872;12.972;2023-02-22T11:07:28;10.30;99.90
21627;DHT22;10975;47.872;12.972;2023-02-22T11:09:59;10.30;99.90
21627;DHT22;10975;47.872;12.972;2023-02-22T11:14:54;10.50;99.90
21627;DHT22;10975;47.872;12.972;2023-02-22T11:17:23;10.50;99.90
21627;DHT22;10975;47.872;12.972;2023-02-22T11:19:52;10.50;99.90
21627;DHT22;10975;47.872;12.972;2023-02-22T11:22:20;10.60;99.90
21627;DHT22;10975;47.872;12.972;2023-02-22T11:24:49;10.70;99.90
21627;DHT22;10975;47.872;12.972;2023-02-22T11:29:49;10.90;99.90
21627;DHT22;10975;47.872;12.972;2023-02-22T11:32:18;11.20;99.90
21627;DHT22;10975;47.872;12.972;2023-02-22T11:34:47;11.30;99.90
21627;DHT22;10975;47.872;12.972;2023-02-22T11:37:34;11.30;99.90
21627;DHT22;10975;47.872;12.972;2023-02-22T11:40:04;11.40;99.90
21627;DHT22;10975;47.872;12.972;2023-02-22T11:42:31;11.50;99.90
21627;DHT22;10975;47.872;12.972;2023-02-22T11:47:35;11.70;99.90
21627;DHT22;10975;47.872;12.972;2023-02-22T11:50:02;11.70;99.90
21627;DHT22;10975;47.872;12.972;2023-02-22T11:52:38;11.80;99.90
21627;DHT22;10975;47.872;12.972;2023-02-22T11:55:13;11.80;99.90
21627;DHT22;10975;47.872;12.972;2023-02-22T12:03:17;12.00;99.90
21627;DHT22;10975;47.872;12.972;2023-02-22T12:06:01;12.10;99.90
21627;DHT22;10975;47.872;12.972;2023-02-22T12:18:54;12.40;99.90
21627;DHT22;10975;47.872;12.972;2023-02-22T12:21:24;12.40;99.90
21627;DHT22;10975;47.872;12.972;2023-02-22T12:26:35;12.40;99.90
21627;DHT22;10975;47.872;12.972;2023-02-22T12:29:10;12.50;99.90
21627;DHT22;10975;47.872;12.972;2023-02-22T12:31:39;12.70;99.90
21627;DHT22;10975;47.872;12.972;2023-02-22T12:34:10;12.80;99.90
21627;DHT22;10975;47.872;12.972;2023-02-22T12:36:42;12.80;99.90
21627;DHT22;10975;47.872;12.972;2023-02-22T12:39:32;12.70;99.90
21627;DHT22;10975;47.872;12.972;2023-02-22T12:42:18;12.80;99.90
21627;DHT22;10975;47.872;12.972;2023-02-22T12:44:50;12.90;99.90
21627;DHT22;10975;47.872;12.972;2023-02-22T12:47:20;13.00;99.90
21627;DHT22;10975;47.872;12.972;2023-02-22T12:49:54;13.10;99.90
21627;DHT22;10975;47.872;12.972;2023-02-22T12:57:43;13.20;99.90
21627;DHT22;10975;47.872;12.972;2023-02-22T13:00:19;13.20;99.90
21627;DHT22;10975;47.872;12.972;2023-02-22T13:02:59;13.30;99.90
21627;DHT22;10975;47.872;12.972;2023-02-22T13:05:28;13.30;99.90
21627;DHT22;10975;47.872;12.972;2023-02-22T13:08:01;13.30;99.90
21627;DHT22;10975;47.872;12.972;2023-02-22T13:10:34;13.30;99.90
21627;DHT22;10975;47.872;12.972;2023-02-22T13:15:55;13.50;99.90
21627;DHT22;10975;47.872;12.972;2023-02-22T13:18:37;13.60;99.90
21627;DHT22;10975;47.872;12.972;2023-02-22T13:21:10;13.70;99.90
21627;DHT22;10975;47.872;12.972;2023-02-22T13:26:38;13.90;99.90
21627;DHT22;10975;47.872;12.972;2023-02-22T13:29:12;13.90;99.90
21627;DHT22;10975;47.872;12.972;2023-02-22T13:34:26;14.00;99.90
21627;DHT22;10975;47.872;12.972;2023-02-22T13:42:45;14.00;99.90
21627;DHT22;10975;47.872;12.972;2023-02-22T13:47:49;13.90;99.90
21627;DHT22;10975;47.872;12.972;2023-02-22T13:51:05;13.90;99.90
21627;DHT22;10975;47.872;12.972;2023-02-22T13:56:52;13.80;99.90
21627;DHT22;10975;47.872;12.972;2023-02-22T14:08:01;14.30;99.90
21627;DHT22;10975;47.872;12.972;2023-02-22T14:10:44;14.30;99.90
21627;DHT22;10975;47.872;12.972;2023-02-22T14:13:12;14.20;99.90
21627;DHT22;10975;47.872;12.972;2023-02-22T14:18:36;14.10;99.90
21627;DHT22;10975;47.872;12.972;2023-02-22T14:21:09;14.10;99.90
21627;DHT22;10975;47.872;12.972;2023-02-22T14:23:42;14.20;99.90
21627;DHT22;10975;47.872;12.972;2023-02-22T14:28:38;14.20;99.90
21627;DHT22;10975;47.872;12.972;2023-02-22T14:31:06;14.30;99.90
21627;DHT22;10975;47.872;12.972;2023-02-22T14:36:20;14.10;99.90
21627;DHT22;10975;47.872;12.972;2023-02-22T14:38:49;14.00;99.90
21627;DHT22;10975;47.872;12.972;2023-02-22T14:41:24;14.10;99.90
21627;DHT22;10975;47.872;12.972;2023-02-22T14:43:52;14.00;99.90
21627;DHT22;10975;47.872;12.972;2023-02-22T14:46:21;13.90;99.90
21627;DHT22;10975;47.872;12.972;2023-02-22T14:48:50;13.90;99.90
21627;DHT22;10975;47.872;12.972;2023-02-22T14:51:22;13.80;99.90
21627;DHT22;10975;47.872;12.972;2023-02-22T14:54:02;13.80;99.90
21627;DHT22;10975;47.872;12.972;2023-02-22T15:01:33;13.60;99.90
21627;DHT22;10975;47.872;12.972;2023-02-22T15:04:24;13.60;99.90
21627;DHT22;10975;47.872;12.972;2023-02-22T15:06:52;13.60;99.90
21627;DHT22;10975;47.872;12.972;2023-02-22T15:09:23;13.60;99.90
21627;DHT22;10975;47.872;12.972;2023-02-22T15:14:32;13.60;99.90
21627;DHT22;10975;47.872;12.972;2023-02-22T15:17:05;13.70;99.90
21627;DHT22;10975;47.872;12.972;2023-02-22T15:19:33;13.70;99.90
21627;DHT22;10975;47.872;12.972;2023-02-22T15:22:02;13.60;99.90
21627;DHT22;10975;47.872;12.972;2023-02-22T15:24:29;13.50;99.90
21627;DHT22;10975;47.872;12.972;2023-02-22T15:27:02;13.50;99.90
21627;DHT22;10975;47.872;12.972;2023-02-22T15:29:34;13.40;99.90
21627;DHT22;10975;47.872;12.972;2023-02-22T15:38:02;13.30;99.90
21627;DHT22;10975;47.872;12.972;2023-02-22T15:40:32;13.30;99.90
21627;DHT22;10975;47.872;12.972;2023-02-22T15:43:18;13.30;99.90
21627;DHT22;10975;47.872;12.972;2023-02-22T15:45:54;13.20;99.90
21627;DHT22;10975;47.872;12.972;2023-02-22T15:48:21;13.20;99.90
21627;DHT22;10975;47.872;12.972;2023-02-22T15:50:59;13.10;99.90
21627;DHT22;10975;47.872;12.972;2023-02-22T15:53:31;13.20;99.90
21627;DHT22;10975;47.872;12.972;2023-02-22T15:56:04;13.20;99.90
21627;DHT22;10975;47.872;12.972;2023-02-22T15:58:31;13.10;99.90
21627;DHT22;10975;47.872;12.972;2023-02-22T16:01:05;13.00;99.90
21627;DHT22;10975;47.872;12.972;2023-02-22T16:03:33;12.90;99.90
21627;DHT22;10975;47.872;12.972;2023-02-22T16:06:07;12.90;99.90
21627;DHT22;10975;47.872;12.972;2023-02-22T16:08:39;12.80;99.90
21627;DHT22;10975;47.872;12.972;2023-02-22T16:13:52;12.70;99.90
21627;DHT22;10975;47.872;12.972;2023-02-22T16:16:21;12.60;99.90
21627;DHT22;10975;47.872;12.972;2023-02-22T16:18:48;12.60;99.90
21627;DHT22;10975;47.872;12.972;2023-02-22T16:21:16;12.50;99.90
21627;DHT22;10975;47.872;12.972;2023-02-22T16:23:47;12.50;99.90
21627;DHT22;10975;47.872;12.972;2023-02-22T16:28:55;12.40;99.90
21627;DHT22;10975;47.872;12.972;2023-02-22T16:31:26;12.20;99.90
21627;DHT22;10975;47.872;12.972;2023-02-22T16:33:54;12.10;99.90
21627;DHT22;10975;47.872;12.972;2023-02-22T16:36:22;12.00;99.90
21627;DHT22;10975;47.872;12.972;2023-02-22T16:38:49;11.80;99.90
21627;DHT22;10975;47.872;12.972;2023-02-22T16:41:17;11.80;99.90
21627;DHT22;10975;47.872;12.972;2023-02-22T16:43:48;11.80;99.90
21627;DHT22;10975;47.872;12.972;2023-02-22T16:46:20;11.70;99.90
21627;DHT22;10975;47.872;12.972;2023-02-22T16:48:47;11.60;99.90
21627;DHT22;10975;47.872;12.972;2023-02-22T16:53:44;11.30;99.90
21627;DHT22;10975;47.872;12.972;2023-02-22T16:56:11;11.30;99.90
21627;DHT22;10975;47.872;12.972;2023-02-22T16:58:41;11.20;99.90
21627;DHT22;10975;47.872;12.972;2023-02-22T17:01:08;11.10;99.90
21627;DHT22;10975;47.872;12.972;2023-02-22T17:03:35;11.00;99.90
21627;DHT22;10975;47.872;12.972;2023-02-22T17:06:02;10.90;99.90
21627;DHT22;10975;47.872;12.972;2023-02-22T17:08:29;10.80;99.90
21627;DHT22;10975;47.872;12.972;2023-02-22T17:10:56;10.70;99.90
21627;DHT22;10975;47.872;12.972;2023-02-22T17:13:23;10.70;99.90
21627;DHT22;10975;47.872;12.972;2023-02-22T17:15:52;10.60;99.90
21627;DHT22;10975;47.872;12.972;2023-02-22T17:18:24;10.60;99.90
21627;DHT22;10975;47.872;12.972;2023-02-22T17:20:54;10.50;99.90
21627;DHT22;10975;47.872;12.972;2023-02-22T17:23:21;10.50;99.90
21627;DHT22;10975;47.872;12.972;2023-02-22T17:25:55;10.40;99.90
21627;DHT22;10975;47.872;12.972;2023-02-22T17:28:24;10.30;99.90
21627;DHT22;10975;47.872;12.972;2023-02-22T17:30:52;10.20;99.90
21627;DHT22;10975;47.872;12.972;2023-02-22T17:33:23;10.10;99.90
21627;DHT22;10975;47.872;12.972;2023-02-22T17:35:53;10.00;99.90
21627;DHT22;10975;47.872;12.972;2023-02-22T17:38:20;10.00;99.90
21627;DHT22;10975;47.872;12.972;2023-02-22T17:40:48;9.90;99.90
21627;DHT22;10975;47.872;12.972;2023-02-22T17:43:17;9.80;99.90
21627;DHT22;10975;47.872;12.972;2023-02-22T17:45:45;9.80;99.90
21627;DHT22;10975;47.872;12.972;2023-02-22T17:48:12;9.70;99.90
21627;DHT22;10975;47.872;12.972;2023-02-22T17:50:40;9.60;99.90
21627;DHT22;10975;47.872;12.972;2023-02-22T17:53:07;9.50;99.90
21627;DHT22;10975;47.872;12.972;2023-02-22T17:55:40;9.50;99.90